createdAt,value
2019-01-08T00:00:49.584Z,90.23
2019-01-08T00:03:40.487Z,90.87
2019-01-08T00:06:30.442Z,91.02
2019-01-08T00:09:17.611Z,91.20
2019-01-08T00:12:08.198Z,91.47
2019-01-08T00:15:04.021Z,91.52
2019-01-08T00:17:51.482Z,91.73
2019-01-08T00:20:40.653Z,91.73
2019-01-08T00:23:30.020Z,91.90
2019-01-08T00:26:17.381Z,91.94
2019-01-08T00:29:04.790Z,91.88
2019-01-08T00:31:52.349Z,92.02
2019-01-08T00:34:39.632Z,92.08
2019-01-08T00:37:43.299Z,91.93
2019-01-08T00:40:30.217Z,90.44
2019-01-08T00:43:17.349Z,90.95
2019-01-08T00:46:04.349Z,89.57
2019-01-08T00:48:51.940Z,88.66
2019-01-08T00:51:39.426Z,89.43
2019-01-08T00:54:27.794Z,89.72
2019-01-08T00:57:15.069Z,88.43
2019-01-08T01:00:02.450Z,89.21
2019-01-08T01:02:50.244Z,89.60
2019-01-08T01:05:38.769Z,89.82
2019-01-08T01:08:25.911Z,89.97
2019-01-08T01:11:13.014Z,90.12
2019-01-08T01:14:00.146Z,90.24
2019-01-08T01:16:49.553Z,90.26
2019-01-08T01:19:36.683Z,90.33
2019-01-08T01:22:23.927Z,90.32
2019-01-08T01:25:13.285Z,90.50
2019-01-08T01:28:00.580Z,89.06
2019-01-08T01:30:48.490Z,89.57
2019-01-08T01:33:37.062Z,89.81
2019-01-08T01:36:24.646Z,89.91
2019-01-08T01:39:12.711Z,88.45
2019-01-08T01:42:01.083Z,89.01
2019-01-08T01:44:50.495Z,89.20
2019-01-08T01:47:37.490Z,89.33
2019-01-08T01:53:31.840Z,89.71
2019-01-08T02:02:32.455Z,89.94
2019-01-08T02:08:26.889Z,89.89
2019-01-08T02:11:14.469Z,89.92
2019-01-08T02:14:04.550Z,89.89
2019-01-08T02:16:52.117Z,88.46
2019-01-08T02:19:39.609Z,88.85
2019-01-08T02:22:26.770Z,88.90
2019-01-08T02:25:14.836Z,88.97
2019-01-08T02:28:02.253Z,88.94
2019-01-08T02:30:49.299Z,88.97
2019-01-08T02:33:36.554Z,88.93
2019-01-08T02:36:24.998Z,88.94
2019-01-08T02:39:12.384Z,88.82
2019-01-08T02:42:00.903Z,88.70
2019-01-08T02:44:52.795Z,88.59
2019-01-08T02:47:37.427Z,88.50
2019-01-08T02:50:24.605Z,87.08
2019-01-08T02:53:12.382Z,87.57
2019-01-08T02:56:00.644Z,87.89
2019-01-08T02:58:47.898Z,88.19
2019-01-08T03:01:35.038Z,88.58
2019-01-08T03:04:22.562Z,89.05
2019-01-08T03:07:09.877Z,89.37
2019-01-08T03:09:57.170Z,89.74
2019-01-08T03:12:45.539Z,88.48
2019-01-08T03:15:33.760Z,89.41
2019-01-08T03:18:21.407Z,88.17
2019-01-08T03:21:11.666Z,89.13
2019-01-08T03:23:59.980Z,87.95
2019-01-08T03:26:47.136Z,88.84
2019-01-08T03:29:34.685Z,89.26
2019-01-08T03:32:23.003Z,88.11
2019-01-08T03:35:11.699Z,89.03
2019-01-08T03:38:00.242Z,89.42
2019-01-08T03:40:49.454Z,89.75
2019-01-08T03:43:36.659Z,88.49
2019-01-08T03:46:24.027Z,89.33
2019-01-08T03:49:11.656Z,89.77
2019-01-08T03:51:58.979Z,90.10
2019-01-08T03:54:46.957Z,90.38
2019-01-08T03:57:35.539Z,90.49
2019-01-08T04:00:32.051Z,90.55
2019-01-08T04:03:19.705Z,90.78
2019-01-08T04:06:08.041Z,90.90
2019-01-08T04:08:58.031Z,91.15
2019-01-08T04:11:45.920Z,91.27
2019-01-08T04:14:33.397Z,91.38
2019-01-08T04:17:20.646Z,91.44
2019-01-08T04:20:08.206Z,91.55
2019-01-08T04:23:04.635Z,91.64
2019-01-08T04:25:51.803Z,91.90
2019-01-08T04:28:38.710Z,90.55
2019-01-08T04:31:25.702Z,89.71
2019-01-08T04:34:12.861Z,88.99
2019-01-08T04:37:00.062Z,89.64
2019-01-08T04:39:47.386Z,90.05
2019-01-08T04:42:34.649Z,90.37
2019-01-08T04:45:21.919Z,90.56
2019-01-08T04:48:11.698Z,89.28
2019-01-08T04:50:59.024Z,88.49
2019-01-08T04:53:46.181Z,89.31
2019-01-08T04:56:33.426Z,89.53
2019-01-08T04:59:20.714Z,89.92
2019-01-08T05:02:08.949Z,90.29
2019-01-08T05:04:56.727Z,90.60
2019-01-08T05:07:44.380Z,90.67
2019-01-08T05:10:32.708Z,90.83
2019-01-08T05:13:21.010Z,91.10
2019-01-08T05:16:23.975Z,91.26
2019-01-08T05:19:11.603Z,91.54
2019-01-08T05:21:59.185Z,91.72
2019-01-08T05:24:46.814Z,90.31
2019-01-08T05:27:35.059Z,90.59
2019-01-08T05:30:22.543Z,90.90
2019-01-08T05:33:10.005Z,90.87
2019-01-08T05:35:58.845Z,91.05
2019-01-08T05:38:46.594Z,91.07
2019-01-08T05:41:34.052Z,91.14
2019-01-08T05:44:23.101Z,91.20
2019-01-08T05:47:10.553Z,91.30
2019-01-08T05:49:57.832Z,91.36
2019-01-08T05:52:45.547Z,91.49
2019-01-08T05:55:33.323Z,91.63
2019-01-08T05:58:21.317Z,91.73
2019-01-08T06:01:09.685Z,91.72
2019-01-08T06:03:57.162Z,91.85
2019-01-08T06:06:44.733Z,91.87
2019-01-08T06:09:32.572Z,91.88
2019-01-08T06:12:23.975Z,91.78
2019-01-08T06:15:11.301Z,91.62
2019-01-08T06:17:58.502Z,91.53
2019-01-08T06:20:46.013Z,91.19
2019-01-08T06:23:33.416Z,90.92
2019-01-08T06:29:26.992Z,89.98
2019-01-08T06:32:14.656Z,89.57
2019-01-08T06:35:03.885Z,88.98
2019-01-08T06:37:52.001Z,88.51
2019-01-08T06:40:39.674Z,88.18
2019-01-08T06:43:28.044Z,87.76
2019-01-08T06:46:15.261Z,87.59
2019-01-08T06:49:02.605Z,87.37
2019-01-08T06:51:50.109Z,87.34
2019-01-08T06:54:37.508Z,87.23
2019-01-08T06:57:25.075Z,87.25
2019-01-08T07:00:14.564Z,87.35
2019-01-08T07:03:02.331Z,87.55
2019-01-08T07:05:49.706Z,87.69
2019-01-08T07:08:37.628Z,87.72
2019-01-08T07:11:24.867Z,87.83
2019-01-08T07:14:13.503Z,88.04
2019-01-08T07:17:00.783Z,88.03
2019-01-08T07:19:48.410Z,88.14
2019-01-08T07:22:35.368Z,87.09
2019-01-08T07:25:22.340Z,87.88
2019-01-08T07:28:09.840Z,88.42
2019-01-08T07:30:59.079Z,88.76
2019-01-08T07:33:51.327Z,87.42
2019-01-08T07:36:39.338Z,88.04
2019-01-08T07:39:26.771Z,86.87
2019-01-08T07:42:14.260Z,86.01
2019-01-08T07:45:01.811Z,86.89
2019-01-08T07:47:50.253Z,87.34
2019-01-08T07:53:44.962Z,88.03
2019-01-08T07:56:33.418Z,88.29
2019-01-08T07:59:20.625Z,88.33
2019-01-08T08:02:07.997Z,88.41
2019-01-08T08:04:56.687Z,88.47
2019-01-08T08:07:44.729Z,88.29
2019-01-08T08:10:31.992Z,88.00
2019-01-08T08:13:19.281Z,87.83
2019-01-08T08:37:29.115Z,80.18
2019-01-08T08:40:16.346Z,82.17
2019-01-08T08:43:03.713Z,80.90
2019-01-08T08:45:52.264Z,82.74
2019-01-08T08:48:39.582Z,83.80
2019-01-08T08:51:27.077Z,82.44
2019-01-08T08:54:14.739Z,83.75
2019-01-08T08:57:02.283Z,84.19
2019-01-08T08:59:49.282Z,84.06
2019-01-08T09:02:36.518Z,84.28
2019-01-08T09:05:23.626Z,84.23
2019-01-08T09:08:10.915Z,83.98
2019-01-08T09:11:06.093Z,83.89
2019-01-08T09:13:53.925Z,83.93
2019-01-08T09:16:41.372Z,83.36
2019-01-08T09:19:29.427Z,83.86
2019-01-08T09:22:17.140Z,84.05
2019-01-08T09:25:05.126Z,84.14
2019-01-08T09:27:52.408Z,84.00
2019-01-08T09:30:39.730Z,83.95
2019-01-08T09:33:29.342Z,83.74
2019-01-08T09:39:23.749Z,84.24
2019-01-08T09:42:12.661Z,84.20
2019-01-08T09:45:01.269Z,84.17
2019-01-08T09:47:50.054Z,83.83
2019-01-08T09:50:37.699Z,83.98
2019-01-08T09:53:28.247Z,84.05
2019-01-08T09:56:15.478Z,84.01
2019-01-08T09:59:07.731Z,83.84
2019-01-08T10:01:54.724Z,83.90
2019-01-08T10:04:50.116Z,83.71
2019-01-08T10:07:39.893Z,82.72
2019-01-08T10:10:29.099Z,80.74
2019-01-08T10:13:16.260Z,81.04
2019-01-08T10:16:05.503Z,81.15
2019-01-08T10:18:52.876Z,80.99
2019-01-08T10:21:48.245Z,81.08
2019-01-08T10:24:36.058Z,81.29
2019-01-08T10:27:24.028Z,81.18
2019-01-08T10:30:11.561Z,81.17
2019-01-08T10:32:58.695Z,80.98
2019-01-08T10:35:45.882Z,81.02
2019-01-08T10:41:41.369Z,81.66
2019-01-08T10:44:28.975Z,82.61
2019-01-08T10:47:16.466Z,83.52
2019-01-08T10:50:05.131Z,82.25
2019-01-08T10:52:52.451Z,83.87
2019-01-08T10:55:39.671Z,84.99
2019-01-08T10:58:27.378Z,83.72
2019-01-08T11:01:14.691Z,85.34
2019-01-08T11:04:01.754Z,86.38
2019-01-08T11:06:51.210Z,87.17
2019-01-08T11:09:38.491Z,87.81
2019-01-08T11:12:25.893Z,88.07
2019-01-08T11:15:14.468Z,88.33
2019-01-08T11:18:01.994Z,88.66
2019-01-08T11:20:49.249Z,88.91
2019-01-08T11:23:37.485Z,89.24
2019-01-08T11:26:24.859Z,89.56
2019-01-08T11:29:12.424Z,89.71
2019-01-08T11:31:59.409Z,89.54
2019-01-08T11:34:46.887Z,89.36
2019-01-08T11:37:34.338Z,87.37
2019-01-08T11:40:25.811Z,87.88
2019-01-08T11:43:13.317Z,88.01
2019-01-08T11:46:00.828Z,87.92
2019-01-08T11:48:48.908Z,87.94
2019-01-08T11:51:38.077Z,88.03
2019-01-08T11:54:25.363Z,87.92
2019-01-08T11:57:12.958Z,87.68
2019-01-08T12:00:00.398Z,87.78
2019-01-08T12:03:04.264Z,87.70
2019-01-08T12:05:51.488Z,87.41
2019-01-08T12:11:45.751Z,87.27
2019-01-08T12:14:32.759Z,87.18
2019-01-08T12:17:19.831Z,85.28
2019-01-08T12:20:10.419Z,85.59
2019-01-08T12:22:57.535Z,85.70
2019-01-08T12:25:46.632Z,83.70
2019-01-08T12:28:35.110Z,84.35
2019-01-08T12:31:22.865Z,82.52
2019-01-08T12:34:10.417Z,83.06
2019-01-08T12:40:08.321Z,83.57
2019-01-08T12:42:55.211Z,83.38
2019-01-08T12:45:42.703Z,83.52
2019-01-08T12:48:29.946Z,84.10
2019-01-08T12:51:17.483Z,84.70
2019-01-08T12:54:05.290Z,85.09
2019-01-08T12:56:54.839Z,85.68
2019-01-08T12:59:42.026Z,86.12
2019-01-08T13:02:30.463Z,86.21
2019-01-08T13:05:17.795Z,85.82
2019-01-08T13:08:06.652Z,85.71
2019-01-08T13:10:53.962Z,85.16
2019-01-08T13:13:41.022Z,84.95
2019-01-08T13:16:28.511Z,84.94
2019-01-08T13:19:18.782Z,85.15
2019-01-08T13:22:05.469Z,85.30
2019-01-08T13:24:54.494Z,85.46
2019-01-08T13:27:42.048Z,85.71
2019-01-08T13:30:37.200Z,86.16
2019-01-08T13:33:24.362Z,86.26
2019-01-08T13:36:11.943Z,86.49
2019-01-08T13:38:59.831Z,86.73
2019-01-08T13:41:47.678Z,87.02
2019-01-08T13:44:36.155Z,85.58
2019-01-08T13:47:23.264Z,86.47
2019-01-08T13:50:10.831Z,86.76
2019-01-08T13:52:58.735Z,87.00
2019-01-08T13:55:46.132Z,87.40
2019-01-08T13:58:33.378Z,87.31
2019-01-08T14:01:20.728Z,87.32
2019-01-08T14:04:08.996Z,87.24
2019-01-08T14:06:56.488Z,86.85
2019-01-08T14:09:43.991Z,86.63
2019-01-08T14:12:31.048Z,86.23
2019-01-08T14:15:18.308Z,85.95
2019-01-08T14:18:06.041Z,85.55
2019-01-08T14:20:53.546Z,85.33
2019-01-08T14:26:49.035Z,84.99
2019-01-08T14:29:36.197Z,84.75
2019-01-08T14:32:23.646Z,84.46
2019-01-08T14:35:10.753Z,83.94
2019-01-08T14:37:58.273Z,82.16
2019-01-08T14:40:53.178Z,82.46
2019-01-08T14:43:40.415Z,80.36
2019-01-08T14:46:27.661Z,81.24
2019-01-08T14:49:15.331Z,81.76
2019-01-08T14:52:02.662Z,81.86
2019-01-08T14:54:49.832Z,81.71
2019-01-08T14:57:36.898Z,81.33
2019-01-08T15:00:24.326Z,81.28
2019-01-08T15:03:11.779Z,81.28
2019-01-08T15:06:01.295Z,81.68
2019-01-08T15:08:51.222Z,81.73
2019-01-08T15:14:44.928Z,81.79
2019-01-08T15:17:48.227Z,81.78
2019-01-08T15:20:35.495Z,81.90
2019-01-08T15:23:26.641Z,81.87
2019-01-08T15:26:14.796Z,82.04
2019-01-08T15:29:03.726Z,80.40
2019-01-08T15:31:53.883Z,81.16
2019-01-08T15:34:51.116Z,81.33
2019-01-08T15:37:44.680Z,80.97
2019-01-08T15:40:28.606Z,80.54
2019-01-08T15:43:25.038Z,80.38
2019-01-08T15:46:12.527Z,80.44
2019-01-08T15:52:11.691Z,79.77
2019-01-08T15:54:58.767Z,79.91
2019-01-08T16:41:35.950Z,79.82
2019-01-08T16:44:24.904Z,78.01
2019-01-08T16:47:13.134Z,79.25
2019-01-08T16:50:01.671Z,79.55
2019-01-08T16:52:50.145Z,80.10
2019-01-08T16:55:38.609Z,80.35
2019-01-08T17:07:55.991Z,80.25
2019-01-08T17:10:46.628Z,80.23
2019-01-08T17:13:34.741Z,80.25
2019-01-08T17:22:36.762Z,80.40
2019-01-08T17:25:28.351Z,80.39
2019-01-08T17:28:18.137Z,78.74
2019-01-08T17:31:07.595Z,79.97
2019-01-08T17:33:57.494Z,80.37
2019-01-08T17:43:00.284Z,80.45
2019-01-08T17:55:15.750Z,80.61
2019-01-08T17:58:38.226Z,80.61
2019-01-08T18:01:25.856Z,80.76
2019-01-08T18:16:53.193Z,79.60
2019-01-08T18:29:02.399Z,78.98
2019-01-08T18:31:57.589Z,78.85
2019-01-08T18:34:48.363Z,79.48
2019-01-08T18:37:36.186Z,80.29
2019-01-08T18:49:51.265Z,82.13
2019-01-08T18:52:40.545Z,80.45
2019-01-08T18:55:28.475Z,81.70
2019-01-08T18:58:26.721Z,82.46
2019-01-08T19:01:19.634Z,83.01
2019-01-08T19:20:06.687Z,86.63
2019-01-08T19:22:58.465Z,87.08
2019-01-08T19:48:01.038Z,88.35
2019-01-08T19:50:51.597Z,88.25
2019-01-08T20:03:07.457Z,85.36
2019-01-08T20:05:56.402Z,83.56
2019-01-08T20:15:03.010Z,83.53
2019-01-08T20:17:51.703Z,83.63
2019-01-08T20:20:43.059Z,83.65
2019-01-08T20:23:34.321Z,83.37
2019-01-08T20:26:22.524Z,83.35
2019-01-08T20:29:18.096Z,83.20
2019-01-08T20:32:07.380Z,82.84
2019-01-08T20:34:58.014Z,82.83
2019-01-08T20:37:52.564Z,82.37
2019-01-08T20:40:40.946Z,81.84
2019-01-08T20:43:32.026Z,81.75
2019-01-08T20:46:20.505Z,81.56
2019-01-08T20:49:08.758Z,81.47
2019-01-08T20:51:58.534Z,81.52
2019-01-08T20:54:54.263Z,79.82
2019-01-08T20:57:45.794Z,80.32
2019-01-08T21:06:51.900Z,81.07
2019-01-08T21:09:43.991Z,81.34
2019-01-08T21:12:34.082Z,81.64
2019-01-08T21:27:56.766Z,82.62
2019-01-08T21:30:45.500Z,83.15
2019-01-08T21:33:38.497Z,81.93
2019-01-08T21:36:44.082Z,81.25
2019-01-08T21:39:34.151Z,83.18
2019-01-08T21:42:23.436Z,83.77
2019-01-08T21:45:11.227Z,84.20
2019-01-08T21:48:00.110Z,84.59
2019-01-08T22:09:39.157Z,86.66
2019-01-08T22:12:34.689Z,87.33
2019-01-08T22:15:22.336Z,87.75
2019-01-08T22:18:10.696Z,88.37
2019-01-08T22:21:00.183Z,88.76
2019-01-08T22:23:50.137Z,89.06
2019-01-08T23:10:22.706Z,91.29
2019-01-08T23:13:10.947Z,91.40
2019-01-08T23:16:00.068Z,91.48
2019-01-08T23:18:50.725Z,91.66
2019-01-08T23:37:31.574Z,89.58
2019-01-08T23:40:19.496Z,88.83
2019-01-08T23:43:07.980Z,88.21
2019-01-08T23:45:56.112Z,89.37
2019-01-08T23:48:45.732Z,89.86
2019-01-08T23:51:36.783Z,90.35
2019-01-08T23:54:31.096Z,90.72
2019-01-08T23:57:24.949Z,91.11
